createdAt,value
2018-05-02T00:01:18.200Z,99.40
2018-05-02T00:07:22.913Z,99.40
2018-05-02T00:13:27.378Z,99.90
2018-05-02T00:19:31.719Z,99.80
2018-05-02T00:25:36.099Z,99.90
2018-05-02T00:31:40.569Z,99.90
2018-05-02T00:37:44.930Z,99.90
2018-05-02T00:43:49.280Z,99.90
2018-05-02T00:49:53.870Z,99.90
2018-05-02T00:55:59.093Z,99.90
2018-05-02T01:02:03.446Z,99.90
2018-05-02T01:08:07.817Z,99.90
2018-05-02T01:14:12.930Z,99.90
2018-05-02T01:20:17.277Z,99.90
2018-05-02T01:26:22.484Z,99.90
2018-05-02T01:32:27.613Z,99.90
2018-05-02T01:38:32.004Z,99.90
2018-05-02T01:44:37.890Z,99.90
2018-05-02T01:50:42.234Z,99.90
2018-05-02T01:56:46.720Z,99.90
2018-05-02T02:02:51.798Z,99.90
2018-05-02T02:08:56.287Z,99.90
2018-05-02T02:15:00.723Z,99.90
2018-05-02T02:21:05.532Z,99.90
2018-05-02T02:27:09.941Z,99.90
2018-05-02T02:33:14.463Z,99.90
2018-05-02T02:39:19.727Z,99.90
2018-05-02T02:45:24.128Z,99.90
2018-05-02T02:51:28.571Z,99.90
2018-05-02T02:57:33.163Z,99.90
2018-05-02T03:03:37.884Z,99.90
2018-05-02T03:09:42.232Z,99.90
2018-05-02T03:15:46.705Z,99.90
2018-05-02T03:21:51.899Z,99.90
2018-05-02T03:27:57.800Z,99.90
2018-05-02T03:34:02.937Z,99.90
2018-05-02T03:40:07.384Z,99.90
2018-05-02T03:46:11.732Z,99.90
2018-05-02T03:52:16.265Z,99.90
2018-05-02T03:58:21.598Z,99.90
2018-05-02T04:04:43.790Z,99.90
2018-05-02T04:10:48.160Z,99.90
2018-05-02T04:16:53.415Z,99.90
2018-05-02T04:22:57.918Z,99.90
2018-05-02T04:29:03.073Z,99.90
2018-05-02T04:35:07.438Z,99.90
2018-05-02T04:41:11.984Z,99.90
2018-05-02T04:47:16.339Z,99.90
2018-05-02T04:53:21.195Z,99.90
2018-05-02T04:59:25.867Z,99.90
2018-05-02T05:05:30.190Z,99.90
2018-05-02T05:11:34.601Z,99.90
2018-05-02T05:17:39.842Z,99.90
2018-05-02T05:23:45.044Z,99.90
2018-05-02T05:29:50.235Z,99.90
2018-05-02T05:35:54.839Z,99.90
2018-05-02T05:41:59.282Z,99.90
2018-05-02T05:48:04.518Z,99.90
2018-05-02T05:54:08.964Z,99.90
2018-05-02T06:00:13.278Z,99.90
2018-05-02T06:06:18.386Z,99.90
2018-05-02T06:12:23.001Z,99.90
2018-05-02T06:18:28.212Z,99.90
2018-05-02T06:24:32.589Z,99.90
2018-05-02T06:30:37.996Z,99.90
2018-05-02T06:36:42.360Z,99.90
2018-05-02T06:42:46.723Z,99.90
2018-05-02T06:48:51.337Z,99.90
2018-05-02T06:54:55.722Z,99.90
2018-05-02T07:01:00.126Z,99.90
2018-05-02T07:07:04.555Z,98.70
2018-05-02T07:13:08.932Z,97.50
2018-05-02T07:19:13.349Z,97.60
2018-05-02T07:25:18.088Z,96.20
2018-05-02T07:31:22.819Z,96.40
2018-05-02T07:37:27.441Z,95.30
2018-05-02T07:43:31.806Z,94.60
2018-05-02T07:49:36.995Z,91.90
2018-05-02T07:55:41.436Z,91.90
2018-05-02T08:01:45.905Z,91.70
2018-05-02T08:07:52.067Z,89.80
2018-05-02T08:13:56.630Z,89.80
2018-05-02T08:20:01.047Z,88.50
2018-05-02T08:26:05.394Z,84.60
2018-05-02T08:32:10.645Z,80.20
2018-05-02T08:38:15.004Z,80.20
2018-05-02T08:44:19.677Z,76.20
2018-05-02T08:50:24.999Z,79.00
2018-05-02T08:56:29.355Z,78.90
2018-05-02T09:02:33.716Z,76.60
2018-05-02T09:08:38.091Z,75.10
2018-05-02T09:14:44.178Z,74.40
2018-05-02T09:20:49.442Z,72.60
2018-05-02T09:26:54.169Z,72.60
2018-05-02T09:32:58.550Z,74.60
2018-05-02T09:39:02.897Z,73.70
2018-05-02T09:45:07.318Z,71.80
2018-05-02T09:51:11.668Z,68.40
2018-05-02T09:57:16.782Z,66.90
2018-05-02T10:03:21.291Z,66.90
2018-05-02T10:09:25.823Z,62.80
2018-05-02T10:15:30.278Z,61.10
2018-05-02T10:21:35.481Z,57.90
2018-05-02T10:27:40.748Z,58.60
2018-05-02T10:33:45.150Z,58.60
2018-05-02T10:39:49.883Z,59.10
2018-05-02T10:45:54.311Z,56.60
2018-05-02T10:51:59.463Z,57.20
2018-05-02T10:58:03.888Z,57.20
2018-05-02T11:04:08.258Z,56.10
2018-05-02T11:10:13.511Z,55.40
2018-05-02T11:16:19.726Z,55.80
2018-05-02T11:22:24.200Z,55.80
2018-05-02T11:28:28.675Z,52.90
2018-05-02T11:34:33.135Z,55.00
2018-05-02T11:40:37.550Z,53.10
2018-05-02T11:46:41.861Z,54.70
2018-05-02T11:52:46.249Z,54.30
2018-05-02T11:58:51.705Z,52.90
2018-05-02T12:04:56.084Z,51.10
2018-05-02T12:11:01.203Z,53.10
2018-05-02T12:17:05.595Z,52.80
2018-05-02T12:23:09.962Z,54.20
2018-05-02T12:29:14.298Z,52.80
2018-05-02T12:35:19.446Z,52.80
2018-05-02T12:41:23.816Z,52.70
2018-05-02T12:47:28.171Z,48.80
2018-05-02T12:53:32.534Z,50.10
2018-05-02T12:59:37.667Z,50.20
2018-05-02T13:05:42.023Z,50.20
2018-05-02T13:11:46.459Z,49.50
2018-05-02T13:17:51.859Z,49.30
2018-05-02T13:23:56.368Z,48.90
2018-05-02T13:30:00.754Z,46.00
2018-05-02T13:36:05.131Z,49.10
2018-05-02T13:42:09.493Z,50.20
2018-05-02T13:48:13.867Z,48.30
2018-05-02T13:54:18.242Z,51.30
2018-05-02T14:13:27.642Z,49.20
2018-05-02T14:19:32.893Z,48.60
2018-05-02T14:25:37.343Z,48.50
2018-05-02T14:31:42.518Z,47.80
2018-05-02T14:37:46.971Z,47.70
2018-05-02T14:43:51.455Z,47.90
2018-05-02T14:49:55.876Z,46.50
2018-05-02T14:56:00.258Z,46.00
2018-05-02T15:02:04.719Z,48.70
2018-05-02T15:08:09.880Z,51.00
2018-05-02T15:14:14.204Z,50.90
2018-05-02T15:20:18.838Z,51.60
2018-05-02T15:26:23.467Z,50.60
2018-05-02T15:32:28.549Z,50.10
2018-05-02T15:38:32.876Z,47.10
2018-05-02T15:44:37.436Z,46.50
2018-05-02T15:50:41.797Z,49.20
2018-05-02T15:56:47.079Z,51.60
2018-05-02T16:02:52.072Z,51.60
2018-05-02T16:08:56.510Z,53.70
2018-05-02T16:15:00.871Z,54.40
2018-05-02T16:21:05.330Z,53.70
2018-05-02T16:27:09.827Z,55.30
2018-05-02T16:33:14.243Z,58.90
2018-05-02T16:39:18.969Z,58.10
2018-05-02T16:45:24.143Z,64.50
2018-05-02T16:51:28.493Z,64.50
2018-05-02T16:57:32.879Z,67.00
2018-05-02T17:03:37.332Z,71.40
2018-05-02T17:09:42.590Z,76.50
2018-05-02T17:15:46.962Z,76.40
2018-05-02T17:21:51.530Z,77.70
2018-05-02T17:27:56.332Z,80.60
2018-05-02T17:34:00.710Z,83.10
2018-05-02T17:40:05.071Z,92.20
2018-05-02T17:46:09.505Z,92.70
2018-05-02T17:52:13.998Z,93.70
2018-05-02T17:58:18.370Z,94.50
2018-05-02T18:04:22.857Z,94.40
2018-05-02T18:10:27.329Z,95.20
2018-05-02T18:16:32.467Z,96.70
2018-05-02T18:22:37.747Z,97.80
2018-05-02T18:28:42.119Z,97.80
2018-05-02T18:34:46.473Z,98.30
2018-05-02T18:40:52.031Z,98.60
2018-05-02T18:46:56.517Z,99.10
2018-05-02T18:53:00.961Z,99.60
2018-05-02T18:59:05.389Z,99.90
2018-05-02T19:05:09.866Z,99.90
2018-05-02T19:11:14.320Z,99.90
2018-05-02T19:17:19.961Z,99.90
2018-05-02T19:23:24.567Z,99.90
2018-05-02T19:29:29.097Z,99.90
2018-05-02T19:35:33.558Z,99.90
2018-05-02T19:48:21.453Z,99.90
2018-05-02T19:54:25.911Z,99.90
2018-05-02T20:00:36.717Z,99.90
2018-05-02T20:06:41.076Z,99.90
2018-05-02T20:12:51.072Z,99.90
2018-05-02T20:18:55.546Z,99.90
2018-05-02T20:25:00.004Z,99.90
2018-05-02T20:31:04.460Z,99.90
2018-05-02T20:37:08.814Z,99.90
2018-05-02T20:43:13.942Z,99.90
2018-05-02T20:49:18.463Z,99.90
2018-05-02T20:55:24.002Z,99.90
2018-05-02T21:01:28.311Z,99.90
2018-05-02T21:07:32.760Z,99.90
2018-05-02T21:13:37.191Z,99.90
2018-05-02T21:19:42.355Z,99.90
2018-05-02T21:25:47.479Z,99.90
2018-05-02T21:31:51.837Z,99.90
2018-05-02T21:37:56.206Z,99.90
2018-05-02T21:44:00.569Z,99.90
2018-05-02T21:50:04.947Z,99.90
2018-05-02T21:56:09.308Z,99.90
2018-05-02T22:02:13.692Z,99.90
2018-05-02T22:08:18.161Z,99.90
2018-05-02T22:14:22.930Z,99.90
2018-05-02T22:20:27.305Z,99.90
2018-05-02T22:26:31.653Z,99.90
2018-05-02T22:32:36.785Z,99.90
2018-05-02T22:38:41.189Z,99.90
2018-05-02T22:44:45.669Z,99.90
2018-05-02T22:50:52.022Z,99.90
2018-05-02T22:56:56.497Z,99.90
2018-05-02T23:03:01.757Z,99.90
2018-05-02T23:09:06.119Z,99.90
2018-05-02T23:15:10.476Z,99.90
2018-05-02T23:21:14.944Z,99.90
2018-05-02T23:27:19.724Z,99.90
2018-05-02T23:33:24.212Z,99.90
2018-05-02T23:39:28.580Z,99.90
2018-05-02T23:45:32.939Z,99.90
2018-05-02T23:51:38.109Z,99.90
2018-05-02T23:57:42.482Z,99.90
